aviador You're here:

KENW Decoded Metar

KENOSHA in WI, USA
Report Time2017-07-24 16:18:00
UTC Time2017-07-24 16:40:45
Flight Rules mvfr MVFR
Wind050° at 12 Gusting to 16 kt
W.Decomp.*RWY 07: 11.4 kt HW 3.7 kt LCW
RWY 33: 1.7 kt HW 11.9 kt RCW
W.Rank050° ranks 33
Current wind is above 050° avg. (8.2)
Visibility9999 m
Phenomena:N/A
Clouds:Broken 028 Hf
Expected CloudBase > 3,200 ft AGL from Temp-Dew spread
Ceiling2,800 ft
Temp22°C (ISA +8)
Dew Point14°C (61% RH)
AAT19.0°C
QNH1018 hPa
Density Alt1,749 ft
Elevation719 ft
Report Wrong Elevation
Raw Report
KENW 241618Z 05012G16KT 10SM BKN028 22/14 A3006 RMK AO2
T02170144=

Extra information for KENW:More info

Metar Taf Metar & Taf Last 4 Metars F.Rules Stats Wind Profile Meteogram Temp Stats Airport Information Weather charts Add Link Nearby VenuesMetar ALERT Operation Metar Decoded Social comments

AIRNAV info for KENW